This is the latest recevied weather packets stored in our database for station/object KA5ZCI. If no packets are shown the sender has not sent any weather packets the latest 10 day(s).
| Time | Temp. | Humidity | Pressure | Rain* | Wind** | Luminosity | Snow |
|---|---|---|---|---|---|---|---|
| 1777395904 | 30° C | 58% | 1017.8 hPa | 0 mm | - | 0 W/m² | - |
| 1777394404 | 29.44° C | 61% | 1017.9 hPa | 0 mm | - | 0 W/m² | - |
| 1777392904 | 29.44° C | 62% | 1017.9 hPa | 0 mm | - | 0 W/m² | - |
| 1777391404 | 28.33° C | 64% | 1018.1 hPa | 0 mm | - | 0 W/m² | - |
| 1777386604 | 27.22° C | 72% | 1017.5 hPa | 0 mm | - | 0 W/m² | - |
| 1777386304 | 26.67° C | 72% | 1017.4 hPa | 0 mm | - | 0 W/m² | - |
| 1777383604 | 26.11° C | 78% | 1017.6 hPa | 0 mm | - | 0 W/m² | - |
| 1777380004 | 23.89° C | 85% | 1017.2 hPa | 0 mm | - | 0 W/m² | - |
| 1777377604 | 22.78° C | 91% | 1016.5 hPa | 0 mm | - | 0 W/m² | - |
| 1777376104 | 22.22° C | 91% | 1016.4 hPa | 0 mm | - | 0 W/m² | - |
| 1777375504 | 22.78° C | 90% | 1015.9 hPa | 0 mm | - | 0 W/m² | - |
| 1777374604 | 22.78° C | 90% | 1015.4 hPa | 0 mm | - | 0 W/m² | - |
| 1777370103 | 23.33° C | 89% | 1014.9 hPa | 0 mm | - | 0 W/m² | - |
| 1777361404 | 23.33° C | 86% | 1015.6 hPa | 0 mm | - | 0 W/m² | - |
| 1777359903 | 23.89° C | 86% | 1015.6 hPa | 0 mm | - | 0 W/m² | - |
| 1777357504 | 23.33° C | 86% | 1015.9 hPa | 0 mm | - | 0 W/m² | - |
| 1777354804 | 23.89° C | 86% | 1016.1 hPa | 0 mm | - | 0 W/m² | - |
| 1777353004 | 23.89° C | 85% | 1015.9 hPa | 0 mm | - | 0 W/m² | - |
| 1777351503 | 23.89° C | 83% | 1016 hPa | 0 mm | - | 0 W/m² | - |
| 1777346703 | 24.44° C | 79% | 1015.8 hPa | 0 mm | - | 0 W/m² | - |
| 1777343404 | 24.44° C | 78% | 1015.5 hPa | 0 mm | - | 0 W/m² | - |
| 1777343104 | 24.44° C | 78% | 1015.6 hPa | 0 mm | - | 0 W/m² | - |
| 1777342203 | 25° C | 78% | 1015.6 hPa | 0 mm | - | 0 W/m² | - |
| 1777341304 | 25° C | 77% | 1015.6 hPa | 0 mm | - | 0 W/m² | - |
| 1777340704 | 25° C | 76% | 1015.4 hPa | 0 mm | - | 0 W/m² | - |
* Rain latest hour (hover to see other rain measurements)
** Current wind speed in m/s (hover to see current wind gust speed)